Time;durP1;ratioP1;P1;durP2;ratioP2;P2;SDS_P1;SDS_P2;PMS_P1;PMS_P2;Temp;Humidity;BMP_temperature;BMP_pressure;BME280_temperature;BME280_humidity;BME280_pressure;Samples;Min_cycle;Max_cycle;Signal;HPM_P1;HPM_P2
2022/11/12 00:00:51;;;;;;;4.20;2.50;;;;;;;;;;7421039;19;20010;-83
2022/11/12 00:03:16;;;;;;;3.35;2.30;;;;;;;;;;7425410;19;20011;-82
2022/11/12 00:05:43;;;;;;;3.05;2.05;;;;;;;;;;7427239;19;20016;-82
2022/11/12 00:08:08;;;;;;;3.33;2.10;;;;;;;;;;7410218;19;20466;-82
2022/11/12 00:10:34;;;;;;;3.40;2.50;;;;;;;;;;7399851;19;20014;-82
2022/11/12 00:12:59;;;;;;;2.72;1.90;;;;;;;;;;7400471;19;20010;-82
2022/11/12 00:15:25;;;;;;;4.00;2.30;;;;;;;;;;7399827;19;20010;-82
2022/11/12 00:17:51;;;;;;;2.88;2.17;;;;;;;;;;7399781;19;20014;-82
2022/11/12 00:20:16;;;;;;;8.55;2.10;;;;;;;;;;7397972;19;20053;-82
2022/11/12 00:22:41;;;;;;;2.97;2.20;;;;;;;;;;7396169;19;20014;-82
2022/11/12 00:25:07;;;;;;;3.08;2.22;;;;;;;;;;7391857;19;19998;-82
2022/11/12 00:27:33;;;;;;;1.83;1.60;;;;;;;;;;7396971;19;20048;-82
2022/11/12 00:29:59;;;;;;;2.20;1.90;;;;;;;;;;7395122;19;20006;-82
2022/11/12 00:32:24;;;;;;;2.53;1.92;;;;;;;;;;7394186;19;20038;-82
2022/11/12 00:34:49;;;;;;;3.58;1.55;;;;;;;;;;7394910;19;20010;-81
2022/11/12 00:37:15;;;;;;;4.97;1.67;;;;;;;;;;7393850;19;20010;-81
2022/11/12 00:39:41;;;;;;;2.25;1.90;;;;;;;;;;7396228;19;20006;-81
2022/11/12 00:42:06;;;;;;;3.03;1.50;;;;;;;;;;7396295;19;20014;-81
2022/11/12 00:44:32;;;;;;;2.53;2.00;;;;;;;;;;7391886;19;20349;-82
2022/11/12 00:46:57;;;;;;;2.25;1.70;;;;;;;;;;7395184;19;20034;-81
2022/11/12 00:49:22;;;;;;;4.38;1.90;;;;;;;;;;7393596;19;20502;-81
2022/11/12 00:51:48;;;;;;;2.08;1.60;;;;;;;;;;7396053;19;20356;-81
2022/11/12 00:54:14;;;;;;;4.57;1.75;;;;;;;;;;7392158;19;20010;-82
2022/11/12 00:56:39;;;;;;;7.25;1.70;;;;;;;;;;7392723;19;20014;-81
2022/11/12 00:59:05;;;;;;;1.60;1.50;;;;;;;;;;7394373;19;20007;-81
2022/11/12 01:01:30;;;;;;;3.70;1.58;;;;;;;;;;7396084;19;20011;-81
2022/11/12 01:03:57;;;;;;;1.40;1.30;;;;;;;;;;7392284;19;20030;-82
2022/11/12 01:06:23;;;;;;;5.78;2.28;;;;;;;;;;7393352;19;20011;-81
2022/11/12 01:08:49;;;;;;;6.15;1.55;;;;;;;;;;7393186;19;20017;-82
2022/11/12 01:11:21;;;;;;;2.28;1.50;;;;;;;;;;7392451;19;20014;-82
2022/11/12 01:13:53;;;;;;;1.20;1.10;;;;;;;;;;7393137;19;20016;-83
2022/11/12 01:16:21;;;;;;;1.60;1.23;;;;;;;;;;7394375;19;20022;-82
2022/11/12 01:18:50;;;;;;;2.47;1.30;;;;;;;;;;7395012;19;20006;-82
2022/11/12 01:21:16;;;;;;;1.50;1.40;;;;;;;;;;7393847;19;20018;-82
2022/11/12 01:23:42;;;;;;;3.33;1.45;;;;;;;;;;7389527;19;20364;-82
2022/11/12 01:26:11;;;;;;;16.83;2.30;;;;;;;;;;7394978;19;20027;-82
2022/11/12 01:28:37;;;;;;;2.40;1.55;;;;;;;;;;7392219;19;20078;-81
2022/11/12 01:31:20;;;;;;;5.10;1.70;;;;;;;;;;7395812;19;20514;-82
2022/11/12 01:33:51;;;;;;;3.47;1.35;;;;;;;;;;7388800;19;20025;-82
2022/11/12 01:36:17;;;;;;;2.13;1.50;;;;;;;;;;7392981;19;20014;-82
2022/11/12 01:38:44;;;;;;;3.10;1.48;;;;;;;;;;7393254;19;20018;-82
2022/11/12 01:41:13;;;;;;;1.70;1.17;;;;;;;;;;7393401;19;20526;-82
2022/11/12 01:43:38;;;;;;;1.17;1.08;;;;;;;;;;7392234;19;20046;-82
2022/11/12 01:46:13;;;;;;;1.45;1.35;;;;;;;;;;7396966;19;20376;-83
2022/11/12 01:48:46;;;;;;;1.50;1.40;;;;;;;;;;7391860;19;20370;-83
2022/11/12 01:51:13;;;;;;;2.33;1.70;;;;;;;;;;7393807;19;20041;-82
2022/11/12 01:53:44;;;;;;;1.88;1.55;;;;;;;;;;7389923;19;20025;-82
2022/11/12 01:56:09;;;;;;;1.60;1.35;;;;;;;;;;7394767;19;19994;-82
2022/11/12 01:58:37;;;;;;;1.33;1.23;;;;;;;;;;7392647;19;20010;-82
2022/11/12 02:01:02;;;;;;;1.70;1.33;;;;;;;;;;7396864;19;20007;-82
2022/11/12 02:03:28;;;;;;;4.05;1.60;;;;;;;;;;7388364;19;20030;-82
2022/11/12 02:06:01;;;;;;;1.50;1.40;;;;;;;;;;7392061;19;20462;-82
2022/11/12 02:08:28;;;;;;;1.50;1.20;;;;;;;;;;7394184;19;20019;-82
2022/11/12 02:10:54;;;;;;;2.97;1.25;;;;;;;;;;7394243;19;20014;-82
2022/11/12 02:16:05;;;;;;;2.10;1.50;;;;;;;;;;7394595;19;20022;-82
2022/11/12 02:18:30;;;;;;;2.40;1.90;;;;;;;;;;7394748;19;20013;-82
2022/11/12 02:20:58;;;;;;;1.98;1.20;;;;;;;;;;7397342;19;20058;-82
2022/11/12 02:23:23;;;;;;;1.73;1.40;;;;;;;;;;7402198;19;20006;-82
2022/11/12 02:25:48;;;;;;;1.67;1.45;;;;;;;;;;7399391;19;20496;-81
2022/11/12 02:28:15;;;;;;;1.92;1.45;;;;;;;;;;7391009;19;20006;-82
2022/11/12 02:30:48;;;;;;;1.98;1.50;;;;;;;;;;7394551;19;20025;-82
2022/11/12 02:33:14;;;;;;;1.70;1.35;;;;;;;;;;7393448;19;20014;-81
2022/11/12 02:35:39;;;;;;;1.70;1.40;;;;;;;;;;7392050;19;20025;-82
2022/11/12 02:38:06;;;;;;;3.00;1.80;;;;;;;;;;7393329;19;20014;-82
2022/11/12 02:40:31;;;;;;;1.95;1.30;;;;;;;;;;7391511;19;20035;-82
2022/11/12 02:42:57;;;;;;;2.63;1.55;;;;;;;;;;7388516;19;20106;-82
2022/11/12 02:45:23;;;;;;;1.80;1.30;;;;;;;;;;7389588;19;20646;-82
2022/11/12 02:47:48;;;;;;;2.05;1.70;;;;;;;;;;7390975;19;19999;-82
2022/11/12 02:50:14;;;;;;;2.72;1.40;;;;;;;;;;7391942;19;20022;-82
2022/11/12 02:52:39;;;;;;;1.17;1.05;;;;;;;;;;7393640;19;19998;-82
2022/11/12 02:55:10;;;;;;;2.25;1.42;;;;;;;;;;7385443;19;20006;-82
2022/11/12 02:57:36;;;;;;;1.70;1.45;;;;;;;;;;7393395;19;20046;-82
2022/11/12 03:00:09;;;;;;;1.50;1.25;;;;;;;;;;7390300;19;20043;-83
2022/11/12 03:02:41;;;;;;;1.48;1.20;;;;;;;;;;7389956;19;20014;-83
2022/11/12 03:05:10;;;;;;;2.03;1.58;;;;;;;;;;7387915;19;20007;-83
2022/11/12 03:07:35;;;;;;;1.58;1.48;;;;;;;;;;7387372;19;20026;-82
2022/11/12 03:10:01;;;;;;;1.83;1.40;;;;;;;;;;7388125;19;20006;-83
2022/11/12 03:12:29;;;;;;;1.27;1.17;;;;;;;;;;7391727;19;20018;-82
2022/11/12 03:14:55;;;;;;;1.30;1.20;;;;;;;;;;7389063;19;20554;-83
2022/11/12 03:17:20;;;;;;;1.27;1.17;;;;;;;;;;7389832;19;20010;-82
2022/11/12 03:19:45;;;;;;;1.42;1.33;;;;;;;;;;7391535;19;19994;-82
2022/11/12 03:22:11;;;;;;;1.65;1.35;;;;;;;;;;7393028;19;20021;-82
2022/11/12 03:24:36;;;;;;;1.52;1.42;;;;;;;;;;7387846;19;20007;-83
2022/11/12 03:27:01;;;;;;;1.17;1.08;;;;;;;;;;7388038;19;20021;-82
2022/11/12 03:29:27;;;;;;;1.38;1.25;;;;;;;;;;7390293;19;20010;-82
2022/11/12 03:31:52;;;;;;;1.35;1.20;;;;;;;;;;7391451;19;20029;-82
2022/11/12 03:34:17;;;;;;;1.38;1.15;;;;;;;;;;7396825;19;20422;-82
2022/11/12 03:36:42;;;;;;;1.15;1.05;;;;;;;;;;7400788;19;20340;-82
2022/11/12 03:39:08;;;;;;;1.90;1.40;;;;;;;;;;7408035;19;20058;-82
2022/11/12 03:41:33;;;;;;;1.00;1.00;;;;;;;;;;7431546;19;20006;-82
2022/11/12 03:43:59;;;;;;;1.27;1.17;;;;;;;;;;7413447;19;20022;-82
2022/11/12 03:46:24;;;;;;;2.08;1.40;;;;;;;;;;7397439;19;20009;-82
2022/11/12 03:48:50;;;;;;;2.03;1.40;;;;;;;;;;7398173;19;20078;-82
2022/11/12 03:51:16;;;;;;;1.30;1.20;;;;;;;;;;7397658;19;20017;-82
2022/11/12 03:53:41;;;;;;;4.40;1.30;;;;;;;;;;7397644;19;20031;-82
2022/11/12 03:56:06;;;;;;;3.10;1.30;;;;;;;;;;7400352;19;20010;-81
2022/11/12 03:58:32;;;;;;;1.75;1.40;;;;;;;;;;7398546;19;20472;-84
2022/11/12 04:00:57;;;;;;;1.55;1.23;;;;;;;;;;7402239;19;20477;-82
2022/11/12 04:03:23;;;;;;;2.10;1.30;;;;;;;;;;7397211;19;20115;-81
2022/11/12 04:08:35;;;;;;;1.30;1.10;;;;;;;;;;7400167;19;20016;-82
2022/11/12 04:11:03;;;;;;;1.33;1.17;;;;;;;;;;7397950;19;20006;-82
2022/11/12 04:13:29;;;;;;;1.85;1.33;;;;;;;;;;7397070;19;20021;-82
2022/11/12 04:22:09;;;;;;;1.67;1.33;;;;;;;;;;7400144;19;20107;-82
2022/11/12 04:27:18;;;;;;;1.20;1.10;;;;;;;;;;7399274;19;20019;-82
2022/11/12 04:32:30;;;;;;;6.05;1.50;;;;;;;;;;7397689;19;20019;-82
2022/11/12 04:34:56;;;;;;;2.35;1.40;;;;;;;;;;7394257;19;20343;-82
2022/11/12 04:37:23;;;;;;;1.30;1.05;;;;;;;;;;7399383;19;19999;-83
2022/11/12 04:39:49;;;;;;;1.30;1.20;;;;;;;;;;7415101;19;20054;-82
2022/11/12 04:44:58;;;;;;;1.35;1.20;;;;;;;;;;7424924;19;20010;-82
2022/11/12 04:47:28;;;;;;;2.90;1.17;;;;;;;;;;7412047;19;20171;-82
2022/11/12 04:49:53;;;;;;;1.90;1.60;;;;;;;;;;7403858;19;19999;-82
2022/11/12 04:52:18;;;;;;;1.40;1.20;;;;;;;;;;7397679;19;20419;-82
2022/11/12 04:54:44;;;;;;;3.30;1.25;;;;;;;;;;7394411;19;19999;-82
2022/11/12 04:57:09;;;;;;;1.40;1.30;;;;;;;;;;7396350;19;20002;-82
2022/11/12 04:59:34;;;;;;;1.30;1.20;;;;;;;;;;7395419;19;19999;-82
2022/11/12 05:02:00;;;;;;;3.22;1.10;;;;;;;;;;7391379;19;20462;-82
2022/11/12 05:04:28;;;;;;;1.10;1.00;;;;;;;;;;7389607;19;20002;-83
2022/11/12 05:06:57;;;;;;;0.80;0.80;;;;;;;;;;7393657;19;20016;-83
2022/11/12 05:09:25;;;;;;;1.42;1.20;;;;;;;;;;7394116;19;20018;-82
2022/11/12 05:11:51;;;;;;;4.07;1.20;;;;;;;;;;7397673;19;20044;-80
2022/11/12 05:14:17;;;;;;;3.53;1.40;;;;;;;;;;7389879;19;20011;-80
2022/11/12 05:16:43;;;;;;;1.48;1.20;;;;;;;;;;7396867;19;19991;-82
2022/11/12 05:19:09;;;;;;;5.57;1.30;;;;;;;;;;7392882;19;20042;-81
2022/11/12 05:24:18;;;;;;;2.90;1.20;;;;;;;;;;7392819;19;20458;-81
2022/11/12 05:26:44;;;;;;;1.10;0.90;;;;;;;;;;7393436;19;20054;-81
2022/11/12 05:29:09;;;;;;;2.65;1.20;;;;;;;;;;7394084;19;20006;-80
2022/11/12 05:31:34;;;;;;;1.27;1.15;;;;;;;;;;7393083;19;19999;-83
2022/11/12 05:34:00;;;;;;;1.63;1.30;;;;;;;;;;7391997;19;20338;-81
2022/11/12 05:36:25;;;;;;;1.00;0.90;;;;;;;;;;7394755;19;19998;-80
2022/11/12 05:38:51;;;;;;;0.98;0.98;;;;;;;;;;7393272;19;20319;-82
2022/11/12 05:41:16;;;;;;;1.35;1.10;;;;;;;;;;7393802;19;20465;-81
2022/11/12 05:43:41;;;;;;;1.20;1.10;;;;;;;;;;7387892;19;20018;-81
2022/11/12 05:46:06;;;;;;;2.85;1.38;;;;;;;;;;7390891;19;19999;-81
2022/11/12 05:48:32;;;;;;;2.30;0.90;;;;;;;;;;7396580;19;20013;-81
2022/11/12 05:50:57;;;;;;;0.95;0.90;;;;;;;;;;7393579;19;19994;-82
2022/11/12 05:53:22;;;;;;;0.90;0.90;;;;;;;;;;7393531;19;20479;-82
2022/11/12 05:55:48;;;;;;;1.23;1.05;;;;;;;;;;7389686;19;19999;-82
2022/11/12 05:58:13;;;;;;;0.95;0.85;;;;;;;;;;7395068;19;20012;-82
2022/11/12 06:00:47;;;;;;;1.55;1.00;;;;;;;;;;7395699;19;19991;-82
2022/11/12 06:03:12;;;;;;;2.58;0.82;;;;;;;;;;7392303;19;20510;-82
2022/11/12 06:05:38;;;;;;;2.45;0.90;;;;;;;;;;7395286;19;20010;-82
2022/11/12 06:08:04;;;;;;;0.77;0.77;;;;;;;;;;7410663;19;20006;-81
2022/11/12 06:10:31;;;;;;;0.80;0.80;;;;;;;;;;7415298;19;19998;-80
2022/11/12 06:12:57;;;;;;;3.78;0.88;;;;;;;;;;7396426;19;20036;-82
2022/11/12 06:15:25;;;;;;;0.88;0.80;;;;;;;;;;7389069;19;20418;-82
2022/11/12 06:17:52;;;;;;;0.82;0.80;;;;;;;;;;7394645;19;20010;-82
2022/11/12 06:20:17;;;;;;;0.93;0.93;;;;;;;;;;7391903;19;20014;-82
2022/11/12 06:22:42;;;;;;;2.03;0.70;;;;;;;;;;7394583;19;20030;-78
2022/11/12 06:25:08;;;;;;;0.80;0.80;;;;;;;;;;7389562;19;19999;-81
2022/11/12 06:27:33;;;;;;;0.80;0.70;;;;;;;;;;7394722;19;20006;-81
2022/11/12 06:29:58;;;;;;;0.70;0.70;;;;;;;;;;7388744;19;20578;-82
2022/11/12 06:32:24;;;;;;;0.77;0.77;;;;;;;;;;7388820;19;20430;-83
2022/11/12 06:34:51;;;;;;;5.57;1.10;;;;;;;;;;7386605;19;20029;-82
2022/11/12 06:37:17;;;;;;;0.73;0.68;;;;;;;;;;7391771;19;20019;-82
2022/11/12 06:39:42;;;;;;;1.38;0.95;;;;;;;;;;7389189;19;20031;-83
2022/11/12 06:42:08;;;;;;;0.93;0.90;;;;;;;;;;7398619;19;20465;-83
2022/11/12 06:44:33;;;;;;;0.90;0.90;;;;;;;;;;7390069;19;20003;-83
2022/11/12 06:46:58;;;;;;;4.80;1.30;;;;;;;;;;7387646;19;20513;-83
2022/11/12 06:49:24;;;;;;;1.40;1.10;;;;;;;;;;7383768;19;19999;-83
2022/11/12 06:52:09;;;;;;;2.55;1.25;;;;;;;;;;7391686;19;20010;-83
2022/11/12 06:54:35;;;;;;;1.55;1.08;;;;;;;;;;7382773;19;20423;-81
2022/11/12 06:57:00;;;;;;;1.38;0.90;;;;;;;;;;7386932;19;20011;-83
2022/11/12 06:59:26;;;;;;;0.57;0.57;;;;;;;;;;7392435;19;20026;-82
2022/11/12 07:01:51;;;;;;;1.40;1.10;;;;;;;;;;7388881;19;19998;-81
2022/11/12 07:04:16;;;;;;;3.95;1.08;;;;;;;;;;7380584;19;20022;-82
2022/11/12 07:06:42;;;;;;;0.80;0.80;;;;;;;;;;7389721;19;20022;-82
2022/11/12 07:09:07;;;;;;;1.27;1.13;;;;;;;;;;7393569;19;20066;-82
2022/11/12 07:11:33;;;;;;;2.72;1.92;;;;;;;;;;7396137;19;20006;-82
2022/11/12 07:13:58;;;;;;;3.55;2.00;;;;;;;;;;7392331;19;20002;-81
2022/11/12 07:16:23;;;;;;;2.55;1.60;;;;;;;;;;7393905;19;20019;-82
2022/11/12 07:18:49;;;;;;;2.22;0.88;;;;;;;;;;7399140;19;20010;-81
2022/11/12 07:21:17;;;;;;;0.93;0.80;;;;;;;;;;7390979;19;20006;-82
2022/11/12 07:23:43;;;;;;;1.20;1.10;;;;;;;;;;7393203;19;20409;-82
2022/11/12 07:26:16;;;;;;;0.70;0.70;;;;;;;;;;7395229;19;20011;-82
2022/11/12 07:28:43;;;;;;;0.98;0.85;;;;;;;;;;7396788;19;20002;-83
2022/11/12 07:31:14;;;;;;;2.70;1.00;;;;;;;;;;7393484;19;20003;-82
2022/11/12 07:33:41;;;;;;;1.25;1.02;;;;;;;;;;7391922;19;20002;-83
2022/11/12 07:36:12;;;;;;;2.20;1.38;;;;;;;;;;7398788;19;20474;-83
2022/11/12 07:38:39;;;;;;;1.08;0.70;;;;;;;;;;7394486;19;20035;-84
2022/11/12 07:41:15;;;;;;;1.27;0.75;;;;;;;;;;7387341;19;20022;-82
2022/11/12 07:43:42;;;;;;;10.68;1.38;;;;;;;;;;7390547;19;20533;-82
2022/11/12 07:46:10;;;;;;;2.17;0.90;;;;;;;;;;7394414;19;20485;-82
2022/11/12 07:48:36;;;;;;;3.65;0.70;;;;;;;;;;7395364;19;20014;-83
2022/11/12 07:51:08;;;;;;;4.85;0.88;;;;;;;;;;7391960;19;20454;-82
2022/11/12 07:53:33;;;;;;;2.15;0.90;;;;;;;;;;7393756;19;20017;-82
2022/11/12 07:56:04;;;;;;;1.00;0.90;;;;;;;;;;7389227;19;19998;-83
2022/11/12 07:58:31;;;;;;;3.17;0.90;;;;;;;;;;7394529;19;20011;-83
2022/11/12 08:00:57;;;;;;;2.22;1.00;;;;;;;;;;7399651;19;20002;-82
2022/11/12 08:03:22;;;;;;;9.10;1.13;;;;;;;;;;7391122;19;20491;-81
2022/11/12 08:05:48;;;;;;;0.77;0.77;;;;;;;;;;7390148;19;20377;-81
2022/11/12 08:08:13;;;;;;;1.33;0.90;;;;;;;;;;7396564;19;20506;-81
2022/11/12 08:10:38;;;;;;;3.40;0.90;;;;;;;;;;7393892;19;20006;-82
2022/11/12 08:13:04;;;;;;;1.10;0.70;;;;;;;;;;7392938;19;19998;-81
2022/11/12 08:15:30;;;;;;;0.60;0.60;;;;;;;;;;7393891;19;20021;-81
2022/11/12 08:17:56;;;;;;;0.98;0.90;;;;;;;;;;7392520;19;20100;-82
2022/11/12 08:20:21;;;;;;;1.33;1.10;;;;;;;;;;7389615;19;20003;-82
2022/11/12 08:22:50;;;;;;;6.38;1.17;;;;;;;;;;7394271;19;20482;-82
2022/11/12 08:25:15;;;;;;;1.02;0.80;;;;;;;;;;7391449;19;20070;-82
2022/11/12 08:27:41;;;;;;;6.60;1.00;;;;;;;;;;7390784;19;20006;-83
2022/11/12 08:30:07;;;;;;;0.60;0.60;;;;;;;;;;7396575;19;20018;-81
2022/11/12 08:32:32;;;;;;;1.13;0.90;;;;;;;;;;7393319;19;20024;-80
2022/11/12 08:34:58;;;;;;;1.00;0.90;;;;;;;;;;7386251;19;20023;-80
2022/11/12 08:37:23;;;;;;;7.53;1.20;;;;;;;;;;7393209;19;20014;-80
2022/11/12 08:39:48;;;;;;;5.85;1.52;;;;;;;;;;7393648;19;20346;-81
2022/11/12 08:42:14;;;;;;;4.47;1.60;;;;;;;;;;7392982;19;20042;-80
2022/11/12 08:44:39;;;;;;;3.63;1.77;;;;;;;;;;7389112;19;20370;-80
2022/11/12 08:47:04;;;;;;;6.78;1.90;;;;;;;;;;7395371;19;20001;-81
2022/11/12 08:49:30;;;;;;;2.08;1.30;;;;;;;;;;7391283;19;20011;-80
2022/11/12 08:51:56;;;;;;;3.42;1.50;;;;;;;;;;7392857;19;20102;-80
2022/11/12 08:54:22;;;;;;;1.58;0.80;;;;;;;;;;7393725;19;20018;-80
2022/11/12 08:56:47;;;;;;;1.00;0.90;;;;;;;;;;7392667;19;20001;-80
2022/11/12 08:59:12;;;;;;;1.20;1.10;;;;;;;;;;7394937;19;20010;-80
2022/11/12 09:01:38;;;;;;;2.58;1.70;;;;;;;;;;7390295;19;20003;-80
2022/11/12 09:04:03;;;;;;;1.42;1.20;;;;;;;;;;7390385;19;20010;-80
2022/11/12 09:06:29;;;;;;;2.40;1.30;;;;;;;;;;7397240;19;20013;-81
2022/11/12 09:08:54;;;;;;;2.28;1.20;;;;;;;;;;7394519;19;20011;-80
2022/11/12 09:11:19;;;;;;;1.95;1.40;;;;;;;;;;7390550;19;20035;-80
2022/11/12 09:13:45;;;;;;;2.03;1.58;;;;;;;;;;7387821;19;20006;-80
2022/11/12 09:16:13;;;;;;;1.85;1.30;;;;;;;;;;7395539;19;20011;-81
2022/11/12 09:18:38;;;;;;;2.42;1.80;;;;;;;;;;7411458;19;19991;-81
2022/11/12 09:21:23;;;;;;;1.92;1.23;;;;;;;;;;7418959;19;20010;-82
2022/11/12 09:23:49;;;;;;;1.90;1.50;;;;;;;;;;7414247;19;20015;-80
2022/11/12 09:26:14;;;;;;;4.20;2.17;;;;;;;;;;7391072;19;20014;-79
2022/11/12 09:28:40;;;;;;;2.85;1.50;;;;;;;;;;7396020;19;20017;-79
2022/11/12 09:31:07;;;;;;;2.35;1.63;;;;;;;;;;7394138;19;19994;-79
2022/11/12 09:33:32;;;;;;;4.57;1.40;;;;;;;;;;7400691;19;20438;-77
2022/11/12 09:36:02;;;;;;;4.15;1.67;;;;;;;;;;7396038;19;19999;-79
2022/11/12 09:38:28;;;;;;;4.63;1.92;;;;;;;;;;7395047;19;19991;-80
2022/11/12 09:41:21;;;;;;;4.68;2.10;;;;;;;;;;7399558;19;20021;-80
2022/11/12 09:43:54;;;;;;;5.15;2.40;;;;;;;;;;7408432;19;20006;-80
2022/11/12 09:46:24;;;;;;;7.65;2.40;;;;;;;;;;7395239;19;20501;-80
2022/11/12 09:48:58;;;;;;;13.63;2.00;;;;;;;;;;7391561;19;20025;-79
2022/11/12 09:51:33;;;;;;;22.90;2.00;;;;;;;;;;7396751;19;19998;-80
2022/11/12 09:54:06;;;;;;;3.25;1.90;;;;;;;;;;7403252;19;20041;-80
2022/11/12 09:56:31;;;;;;;9.00;1.75;;;;;;;;;;7403238;19;20034;-79
2022/11/12 09:58:57;;;;;;;5.03;1.42;;;;;;;;;;7395108;19;20010;-79
2022/11/12 10:01:40;;;;;;;20.55;2.58;;;;;;;;;;7392696;19;19994;-79
2022/11/12 10:04:46;;;;;;;3.70;1.25;;;;;;;;;;7387800;19;20378;-78
2022/11/12 10:07:26;;;;;;;2.15;1.77;;;;;;;;;;7392281;19;20058;-79
2022/11/12 10:10:08;;;;;;;14.82;2.67;;;;;;;;;;7392455;19;20006;-80
2022/11/12 10:12:52;;;;;;;5.85;1.30;;;;;;;;;;7390579;19;20344;-82
2022/11/12 10:18:50;;;;;;;2.78;1.35;;;;;;;;;;7395134;19;20014;-82
2022/11/12 10:21:39;;;;;;;1.40;1.17;;;;;;;;;;7393442;19;20006;-83
2022/11/12 10:24:08;;;;;;;2.75;1.15;;;;;;;;;;7395331;19;20013;-82
2022/11/12 10:26:36;;;;;;;4.07;1.23;;;;;;;;;;7391093;19;20014;-80
2022/11/12 10:29:11;;;;;;;15.13;2.05;;;;;;;;;;7397405;19;20002;-81
2022/11/12 10:31:37;;;;;;;5.00;1.30;;;;;;;;;;7390940;19;20551;-81
2022/11/12 10:34:12;;;;;;;8.38;1.27;;;;;;;;;;7396861;19;20007;-82
2022/11/12 10:36:39;;;;;;;2.22;1.50;;;;;;;;;;7395875;19;20005;-81
2022/11/12 10:39:04;;;;;;;1.60;1.25;;;;;;;;;;7391296;19;20502;-80
2022/11/12 10:41:33;;;;;;;1.80;1.48;;;;;;;;;;7388603;19;20006;-81
2022/11/12 10:44:11;;;;;;;4.10;1.48;;;;;;;;;;7390391;19;20034;-81
2022/11/12 10:46:37;;;;;;;1.55;1.30;;;;;;;;;;7392717;19;20018;-81
2022/11/12 10:49:15;;;;;;;2.55;1.70;;;;;;;;;;7391874;19;20391;-81
2022/11/12 10:51:40;;;;;;;1.88;1.45;;;;;;;;;;7391610;19;19997;-81
2022/11/12 10:54:26;;;;;;;2.53;1.50;;;;;;;;;;7391522;19;21540;-81
2022/11/12 10:56:52;;;;;;;1.92;1.50;;;;;;;;;;7392853;19;20014;-81
2022/11/12 10:59:20;;;;;;;5.55;1.48;;;;;;;;;;7392242;19;19998;-81
2022/11/12 11:01:54;;;;;;;1.52;1.27;;;;;;;;;;7386443;19;20015;-78
2022/11/12 11:04:34;;;;;;;3.55;1.60;;;;;;;;;;7385050;19;20011;-80
2022/11/12 11:07:14;;;;;;;1.90;1.23;;;;;;;;;;7391938;19;20396;-82
2022/11/12 11:09:51;;;;;;;1.73;1.33;;;;;;;;;;7387262;19;20019;-79
2022/11/12 11:12:27;;;;;;;1.45;1.35;;;;;;;;;;7392894;19;20014;-79
2022/11/12 11:15:09;;;;;;;2.10;1.20;;;;;;;;;;7385073;19;20410;-79
2022/11/12 11:17:35;;;;;;;1.35;1.25;;;;;;;;;;7392005;19;20062;-80
2022/11/12 11:20:02;;;;;;;1.90;1.38;;;;;;;;;;7390892;19;20031;-80
2022/11/12 11:22:42;;;;;;;1.23;1.13;;;;;;;;;;7392697;19;20448;-80
2022/11/12 11:25:22;;;;;;;2.25;1.35;;;;;;;;;;7386300;19;20010;-80
2022/11/12 11:27:56;;;;;;;2.42;1.30;;;;;;;;;;7387924;19;20482;-80
2022/11/12 11:30:22;;;;;;;6.87;1.47;;;;;;;;;;7381989;19;20072;-80
2022/11/12 11:33:12;;;;;;;1.45;1.27;;;;;;;;;;7387683;19;20014;-77
2022/11/12 11:36:11;;;;;;;1.73;1.27;;;;;;;;;;7388037;19;20413;-80
2022/11/12 11:38:37;;;;;;;1.30;1.20;;;;;;;;;;7390927;19;20320;-79
2022/11/12 11:41:29;;;;;;;1.48;1.30;;;;;;;;;;7386056;19;20005;-79
2022/11/12 11:44:15;;;;;;;2.78;1.58;;;;;;;;;;7388125;19;20060;-80
2022/11/12 11:47:15;;;;;;;2.30;1.45;;;;;;;;;;7392502;19;20010;-80
2022/11/12 11:49:52;;;;;;;1.83;1.20;;;;;;;;;;7388463;19;20010;-81
2022/11/12 11:52:35;;;;;;;2.10;1.50;;;;;;;;;;7386722;19;20331;-81
2022/11/12 11:55:30;;;;;;;4.03;1.40;;;;;;;;;;7392118;19;20355;-80
2022/11/12 11:58:03;;;;;;;1.70;1.48;;;;;;;;;;7394776;19;20007;-81
2022/11/12 12:01:06;;;;;;;1.50;1.40;;;;;;;;;;7394977;19;20014;-81
2022/11/12 12:03:45;;;;;;;1.63;1.48;;;;;;;;;;7394463;19;20037;-80
2022/11/12 12:06:25;;;;;;;1.85;1.58;;;;;;;;;;7396680;19;19999;-80
2022/11/12 12:09:16;;;;;;;1.50;1.40;;;;;;;;;;7398055;19;20405;-80
2022/11/12 12:12:04;;;;;;;2.08;1.52;;;;;;;;;;7398863;19;20007;-81
2022/11/12 12:14:43;;;;;;;2.13;1.50;;;;;;;;;;7395821;19;20015;-80
2022/11/12 12:17:37;;;;;;;1.58;1.42;;;;;;;;;;7398198;19;20022;-83
2022/11/12 12:20:18;;;;;;;1.40;1.30;;;;;;;;;;7398653;19;20488;-80
2022/11/12 12:22:58;;;;;;;5.93;1.88;;;;;;;;;;7395452;19;20008;-80
2022/11/12 12:25:31;;;;;;;1.98;1.48;;;;;;;;;;7391712;19;20037;-80
2022/11/12 12:28:00;;;;;;;2.08;1.30;;;;;;;;;;7395467;19;20014;-80
2022/11/12 12:30:26;;;;;;;2.08;1.60;;;;;;;;;;7397871;19;20022;-81
2022/11/12 12:33:01;;;;;;;1.90;1.65;;;;;;;;;;7393205;19;20058;-80
2022/11/12 12:35:46;;;;;;;2.00;1.30;;;;;;;;;;7393411;19;20040;-80
2022/11/12 12:38:34;;;;;;;1.77;1.50;;;;;;;;;;7399363;19;20011;-80
2022/11/12 12:41:10;;;;;;;1.73;1.63;;;;;;;;;;7394634;19;20560;-80
2022/11/12 12:43:42;;;;;;;2.17;1.98;;;;;;;;;;7393632;19;20006;-80
2022/11/12 12:46:11;;;;;;;1.77;1.40;;;;;;;;;;7396493;19;20002;-80
2022/11/12 12:48:41;;;;;;;3.83;2.45;;;;;;;;;;7392055;19;19995;-81
2022/11/12 12:51:06;;;;;;;2.63;1.95;;;;;;;;;;7395332;19;20006;-81
2022/11/12 12:53:34;;;;;;;1.73;1.63;;;;;;;;;;7393878;19;20337;-80
2022/11/12 12:56:02;;;;;;;2.38;2.17;;;;;;;;;;7393400;19;20546;-80
2022/11/12 12:58:31;;;;;;;3.05;2.10;;;;;;;;;;7395564;19;20468;-80
2022/11/12 13:01:18;;;;;;;1.98;1.67;;;;;;;;;;7390904;19;20002;-80
2022/11/12 13:03:43;;;;;;;1.98;1.65;;;;;;;;;;7392184;19;20006;-79
2022/11/12 13:06:24;;;;;;;3.65;3.25;;;;;;;;;;7397074;19;19990;-80
2022/11/12 13:09:02;;;;;;;2.78;2.00;;;;;;;;;;7395190;19;20480;-80
2022/11/12 13:12:25;;;;;;;2.22;2.03;;;;;;;;;;7401431;19;20044;-80
2022/11/12 13:14:34;;;;;;;2.38;2.00;;;;;;;;;;7396654;19;20002;-81
2022/11/12 13:16:59;;;;;;;4.53;2.13;;;;;;;;;;7396290;19;20006;-80
2022/11/12 13:19:43;;;;;;;3.05;2.65;;;;;;;;;;7389984;19;20009;-81
2022/11/12 13:22:17;;;;;;;3.08;2.35;;;;;;;;;;7394641;19;20014;-81
2022/11/12 13:25:01;;;;;;;2.67;2.25;;;;;;;;;;7391608;19;20122;-80
2022/11/12 13:27:39;;;;;;;2.17;1.98;;;;;;;;;;7397616;19;20319;-81
2022/11/12 13:30:13;;;;;;;2.83;1.92;;;;;;;;;;7392284;19;20531;-81
2022/11/12 13:32:45;;;;;;;2.42;2.17;;;;;;;;;;7394404;19;20014;-81
2022/11/12 13:35:10;;;;;;;5.05;2.58;;;;;;;;;;7391888;19;20647;-81
2022/11/12 13:37:50;;;;;;;2.83;2.30;;;;;;;;;;7402355;19;20007;-80
2022/11/12 13:40:29;;;;;;;2.47;2.28;;;;;;;;;;7390733;19;20342;-81
2022/11/12 13:43:16;;;;;;;2.72;2.28;;;;;;;;;;7394024;19;20108;-81
2022/11/12 13:46:02;;;;;;;2.75;2.20;;;;;;;;;;7393339;19;20026;-80
2022/11/12 13:48:56;;;;;;;2.97;2.33;;;;;;;;;;7391576;19;20006;-81
2022/11/12 13:51:45;;;;;;;2.33;2.10;;;;;;;;;;7393611;19;20473;-81
2022/11/12 13:54:32;;;;;;;2.85;2.35;;;;;;;;;;7387271;19;20029;-81
2022/11/12 13:57:19;;;;;;;3.65;2.40;;;;;;;;;;7394701;19;20030;-81
2022/11/12 13:59:47;;;;;;;3.75;2.72;;;;;;;;;;7400136;19;20029;-81
2022/11/12 14:02:23;;;;;;;2.92;2.40;;;;;;;;;;7398790;19;20017;-81
2022/11/12 14:04:50;;;;;;;3.60;2.30;;;;;;;;;;7403663;19;20048;-81
2022/11/12 14:07:39;;;;;;;2.42;2.10;;;;;;;;;;7389390;19;20014;-80
2022/11/12 14:10:11;;;;;;;3.78;2.70;;;;;;;;;;7388353;19;20006;-80
2022/11/12 14:13:02;;;;;;;3.55;2.47;;;;;;;;;;7394605;19;20022;-79
2022/11/12 14:15:33;;;;;;;3.53;2.33;;;;;;;;;;7387861;19;20010;-78
2022/11/12 14:18:10;;;;;;;4.43;2.83;;;;;;;;;;7387546;19;20066;-79
2022/11/12 14:20:38;;;;;;;3.55;2.78;;;;;;;;;;7392974;19;20108;-80
2022/11/12 14:23:12;;;;;;;2.92;2.47;;;;;;;;;;7390746;19;19995;-80
2022/11/12 14:25:49;;;;;;;3.25;2.38;;;;;;;;;;7392002;19;20007;-81
2022/11/12 14:28:32;;;;;;;3.70;2.65;;;;;;;;;;7390207;19;20054;-79
2022/11/12 14:30:59;;;;;;;3.17;2.47;;;;;;;;;;7392213;19;20010;-80
2022/11/12 14:33:26;;;;;;;2.45;2.25;;;;;;;;;;7390318;19;21515;-80
2022/11/12 14:36:05;;;;;;;2.63;2.22;;;;;;;;;;7394118;19;20027;-80
2022/11/12 14:38:41;;;;;;;3.28;2.60;;;;;;;;;;7390644;19;20014;-80
2022/11/12 14:41:17;;;;;;;4.85;2.80;;;;;;;;;;7396660;19;20010;-80
2022/11/12 14:43:44;;;;;;;3.15;2.72;;;;;;;;;;7392466;19;20013;-81
2022/11/12 14:46:23;;;;;;;3.88;2.40;;;;;;;;;;7400426;19;20006;-80
2022/11/12 14:48:56;;;;;;;4.20;2.67;;;;;;;;;;7423909;19;20006;-80
2022/11/12 14:51:26;;;;;;;6.97;3.50;;;;;;;;;;7420325;19;20028;-81
2022/11/12 14:53:56;;;;;;;6.72;3.47;;;;;;;;;;7418518;19;19995;-81
2022/11/12 14:56:34;;;;;;;5.10;3.25;;;;;;;;;;7420373;19;20144;-78
2022/11/12 14:58:59;;;;;;;5.38;3.42;;;;;;;;;;7394230;19;20078;-78
2022/11/12 15:01:33;;;;;;;6.10;3.67;;;;;;;;;;7387516;19;20003;-77
2022/11/12 15:04:26;;;;;;;4.70;3.35;;;;;;;;;;7381434;19;20011;-78
2022/11/12 15:06:53;;;;;;;27.30;4.68;;;;;;;;;;7385789;19;20399;-77
2022/11/12 15:09:30;;;;;;;7.68;3.50;;;;;;;;;;7390117;19;20014;-78
2022/11/12 15:11:56;;;;;;;23.83;5.43;;;;;;;;;;7389245;19;20002;-78
2022/11/12 15:14:23;;;;;;;4.75;2.78;;;;;;;;;;7385775;19;20029;-78
2022/11/12 15:16:49;;;;;;;9.10;3.25;;;;;;;;;;7390513;19;20621;-78
2022/11/12 15:19:17;;;;;;;11.68;3.17;;;;;;;;;;7390386;19;20584;-78
2022/11/12 15:21:51;;;;;;;25.10;5.10;;;;;;;;;;7386835;19;20462;-80
2022/11/12 15:24:34;;;;;;;6.75;3.08;;;;;;;;;;7386967;19;20007;-78
2022/11/12 15:27:20;;;;;;;9.35;2.90;;;;;;;;;;7391366;19;19999;-78